createdAt,value
2022-11-13T00:00:14.362Z,2.90
2022-11-13T00:03:37.416Z,2.90
2022-11-13T00:06:59.717Z,2.90
2022-11-13T00:10:21.454Z,2.90
2022-11-13T00:13:43.056Z,2.80
2022-11-13T00:17:04.655Z,2.80
2022-11-13T00:20:27.772Z,2.70
2022-11-13T00:23:49.766Z,2.60
2022-11-13T00:27:11.366Z,2.60
2022-11-13T00:30:32.956Z,2.60
2022-11-13T00:34:32.972Z,2.50
2022-11-13T00:37:37.835Z,2.50
2022-11-13T00:40:59.437Z,2.50
2022-11-13T00:44:21.035Z,2.40
2022-11-13T00:47:42.639Z,2.40
2022-11-13T00:51:04.248Z,2.40
2022-11-13T00:54:27.177Z,2.40
2022-11-13T00:57:48.757Z,2.50
2022-11-13T01:01:11.500Z,2.70
2022-11-13T01:04:33.271Z,2.70
2022-11-13T01:07:55.112Z,2.70
2022-11-13T01:11:18.984Z,2.70
2022-11-13T01:14:40.589Z,2.80
2022-11-13T01:18:02.184Z,2.70
2022-11-13T01:21:25.433Z,2.70
2022-11-13T01:24:47.031Z,2.70
2022-11-13T01:28:09.995Z,2.70
2022-11-13T01:31:31.596Z,2.60
2022-11-13T01:34:53.226Z,2.50
2022-11-13T01:38:14.811Z,2.40
2022-11-13T01:41:36.415Z,2.40
2022-11-13T01:45:00.241Z,2.40
2022-11-13T01:48:21.821Z,2.40
2022-11-13T01:51:46.831Z,2.30
2022-11-13T01:55:10.887Z,2.20
2022-11-13T01:58:32.492Z,2.20
2022-11-13T02:01:56.153Z,2.10
2022-11-13T02:05:17.847Z,2.10
2022-11-13T02:08:39.710Z,2.10
2022-11-13T02:12:01.726Z,2.10
2022-11-13T02:15:24.433Z,2.10
2022-11-13T02:18:47.392Z,2.00
2022-11-13T02:22:11.486Z,1.90
2022-11-13T02:25:34.509Z,1.90
2022-11-13T02:28:56.282Z,1.90
2022-11-13T02:32:17.911Z,1.80
2022-11-13T02:35:39.491Z,1.70
2022-11-13T02:39:03.623Z,1.70
2022-11-13T02:42:26.565Z,1.60
2022-11-13T02:45:48.194Z,1.60
2022-11-13T02:49:09.767Z,1.60
2022-11-13T02:52:31.533Z,1.60
2022-11-13T02:55:53.319Z,1.50
2022-11-13T02:59:16.280Z,1.60
2022-11-13T03:02:37.920Z,1.60
2022-11-13T03:05:59.567Z,1.60
2022-11-13T03:09:21.228Z,1.70
2022-11-13T03:12:42.826Z,1.70
2022-11-13T03:16:10.281Z,1.70
2022-11-13T03:19:31.877Z,1.60
2022-11-13T03:22:53.474Z,1.60
2022-11-13T03:26:16.002Z,1.60
2022-11-13T03:29:37.604Z,1.60
2022-11-13T03:33:00.549Z,1.60
2022-11-13T03:36:22.167Z,1.70
2022-11-13T03:39:43.774Z,1.60
2022-11-13T03:43:05.345Z,1.60
2022-11-13T03:46:26.953Z,1.60
2022-11-13T03:49:49.937Z,1.60
2022-11-13T03:53:12.033Z,1.70
2022-11-13T03:56:33.624Z,1.70
2022-11-13T03:59:55.229Z,1.70
2022-11-13T04:03:16.816Z,1.70
2022-11-13T04:06:39.901Z,1.60
2022-11-13T04:10:01.518Z,1.70
2022-11-13T04:13:23.098Z,1.70
2022-11-13T04:16:44.845Z,1.70
2022-11-13T04:20:07.173Z,1.70
2022-11-13T04:23:30.209Z,1.60
2022-11-13T04:26:51.823Z,1.50
2022-11-13T04:30:13.482Z,1.50
2022-11-13T04:33:35.143Z,1.50
2022-11-13T04:36:56.746Z,1.40
2022-11-13T04:40:19.716Z,1.30
2022-11-13T04:43:41.328Z,1.20
2022-11-13T04:47:02.980Z,1.10
2022-11-13T04:50:24.723Z,1.10
2022-11-13T04:53:46.303Z,1.00
2022-11-13T04:57:09.275Z,1.00
2022-11-13T05:00:30.861Z,0.90
2022-11-13T05:03:52.660Z,0.90
2022-11-13T05:07:14.526Z,0.80
2022-11-13T05:10:36.476Z,0.80
2022-11-13T05:14:03.238Z,0.90
2022-11-13T05:17:25.328Z,0.80
2022-11-13T05:20:46.932Z,0.80
2022-11-13T05:24:09.839Z,0.70
2022-11-13T05:27:31.419Z,0.70
2022-11-13T05:31:01.999Z,0.70
2022-11-13T05:34:23.694Z,0.70
2022-11-13T05:37:45.284Z,0.60
2022-11-13T05:41:08.717Z,0.60
2022-11-13T05:44:30.284Z,0.60
2022-11-13T05:47:53.237Z,0.50
2022-11-13T05:51:16.396Z,0.40
2022-11-13T05:54:37.974Z,0.40
2022-11-13T05:57:59.565Z,0.40
2022-11-13T06:01:22.235Z,0.40
2022-11-13T06:04:45.162Z,0.40
2022-11-13T06:08:06.755Z,0.40
2022-11-13T06:11:29.132Z,0.40
2022-11-13T06:14:50.892Z,0.30
2022-11-13T06:18:12.738Z,0.20
2022-11-13T06:21:36.857Z,0.30
2022-11-13T06:24:58.767Z,0.30
2022-11-13T06:28:22.337Z,0.30
2022-11-13T06:31:43.911Z,0.40
2022-11-13T06:35:05.749Z,0.40
2022-11-13T06:38:31.255Z,0.40
2022-11-13T06:41:53.163Z,0.40
2022-11-13T06:45:14.879Z,0.50
2022-11-13T06:48:36.627Z,0.40
2022-11-13T06:51:58.314Z,0.50
2022-11-13T06:55:21.337Z,0.60
2022-11-13T06:58:42.972Z,0.60
2022-11-13T07:02:04.580Z,0.70
2022-11-13T07:05:26.164Z,0.80
2022-11-13T07:08:47.830Z,0.90
2022-11-13T07:12:11.168Z,1.00
2022-11-13T07:15:34.413Z,1.10
2022-11-13T07:18:56.144Z,1.20
2022-11-13T07:22:20.228Z,1.30
2022-11-13T07:25:42.288Z,1.30
2022-11-13T07:29:05.307Z,1.40
2022-11-13T07:32:26.943Z,1.50
2022-11-13T07:35:48.531Z,1.70
2022-11-13T07:39:10.901Z,1.80
2022-11-13T07:42:32.887Z,1.80
2022-11-13T07:45:57.425Z,1.70
2022-11-13T07:49:19.043Z,1.70
2022-11-13T07:52:40.618Z,1.80
2022-11-13T07:56:02.505Z,1.90
2022-11-13T07:59:24.120Z,1.90
2022-11-13T08:02:47.077Z,2.10
2022-11-13T08:06:08.672Z,2.30
2022-11-13T08:09:30.284Z,2.30
2022-11-13T08:12:57.273Z,2.60
2022-11-13T08:16:18.890Z,2.60
2022-11-13T08:19:41.896Z,2.80
2022-11-13T08:23:04.216Z,2.80
2022-11-13T08:26:25.796Z,2.90
2022-11-13T08:29:47.416Z,2.90
2022-11-13T08:33:09.003Z,2.90
2022-11-13T08:36:31.969Z,2.80
2022-11-13T08:39:53.580Z,2.60
2022-11-13T08:43:15.599Z,2.50
2022-11-13T08:46:37.774Z,2.80
2022-11-13T08:49:59.410Z,3.00
2022-11-13T08:53:23.325Z,3.30
2022-11-13T08:56:51.402Z,3.30
2022-11-13T09:00:16.532Z,3.50
2022-11-13T09:03:38.153Z,3.70
2022-11-13T09:06:59.807Z,4.00
2022-11-13T09:10:26.128Z,3.90
2022-11-13T09:13:52.959Z,4.00
2022-11-13T09:17:15.057Z,4.40
2022-11-13T09:20:37.174Z,4.70
2022-11-13T09:23:59.678Z,4.60
2022-11-13T09:27:23.117Z,4.50
2022-11-13T09:30:44.951Z,4.30
2022-11-13T09:34:06.919Z,4.10
2022-11-13T09:37:28.497Z,4.20
2022-11-13T09:40:52.853Z,4.10
2022-11-13T09:44:18.045Z,4.10
2022-11-13T09:47:41.564Z,4.00
2022-11-13T09:51:05.039Z,4.10
2022-11-13T09:54:26.656Z,4.20
2022-11-13T09:57:51.116Z,4.30
2022-11-13T10:01:17.448Z,4.30
2022-11-13T10:04:46.340Z,4.40
2022-11-13T10:08:13.601Z,4.60
2022-11-13T10:11:37.438Z,4.80
2022-11-13T10:15:01.223Z,5.00
2022-11-13T10:18:26.280Z,5.10
2022-11-13T10:21:52.203Z,5.30
2022-11-13T10:25:21.262Z,5.40
2022-11-13T10:28:50.542Z,5.60
2022-11-13T10:32:17.393Z,5.60
2022-11-13T10:35:47.045Z,5.70
2022-11-13T10:39:09.023Z,5.80
2022-11-13T10:42:36.877Z,5.90
2022-11-13T10:45:59.403Z,6.10
2022-11-13T10:49:21.999Z,6.20
2022-11-13T10:52:48.051Z,6.20
2022-11-13T10:56:14.011Z,6.30
2022-11-13T10:59:39.315Z,6.50
2022-11-13T11:03:01.359Z,6.60
2022-11-13T11:06:56.331Z,6.70
2022-11-13T11:10:22.205Z,6.80
2022-11-13T11:13:43.821Z,6.90
2022-11-13T11:17:07.805Z,6.90
2022-11-13T11:20:46.097Z,7.00
2022-11-13T11:24:11.731Z,7.20
2022-11-13T11:27:35.928Z,7.30
2022-11-13T11:31:01.221Z,7.40
2022-11-13T11:34:25.471Z,7.50
2022-11-13T11:37:50.053Z,7.60
2022-11-13T11:41:16.561Z,7.60
2022-11-13T11:44:43.756Z,7.60
2022-11-13T11:48:09.927Z,7.70
2022-11-13T11:51:32.589Z,7.80
2022-11-13T11:54:57.494Z,7.80
2022-11-13T11:58:25.949Z,7.90
2022-11-13T12:02:02.708Z,8.00
2022-11-13T12:05:28.445Z,8.00
2022-11-13T12:08:55.017Z,8.00
2022-11-13T12:12:21.952Z,8.10
2022-11-13T12:15:51.559Z,8.20
2022-11-13T12:19:17.504Z,8.30
2022-11-13T12:22:44.581Z,8.40
2022-11-13T12:26:10.883Z,8.40
2022-11-13T12:29:39.568Z,8.50
2022-11-13T12:33:16.686Z,8.50
2022-11-13T12:36:38.640Z,8.60
2022-11-13T12:40:06.390Z,8.60
2022-11-13T12:43:37.455Z,8.60
2022-11-13T12:47:01.076Z,8.80
2022-11-13T12:50:30.241Z,8.80
2022-11-13T12:53:54.263Z,8.90
2022-11-13T12:57:19.154Z,9.00
2022-11-13T13:00:41.405Z,9.10
2022-11-13T13:04:29.190Z,9.20
2022-11-13T13:08:09.882Z,9.30
2022-11-13T13:11:37.141Z,9.30
2022-11-13T13:15:11.152Z,9.40
2022-11-13T13:18:33.935Z,9.40
2022-11-13T13:21:55.672Z,9.40
2022-11-13T13:25:25.079Z,9.40
2022-11-13T13:28:49.473Z,9.40
2022-11-13T13:32:20.849Z,9.50
2022-11-13T13:35:46.795Z,9.50
2022-11-13T13:39:15.958Z,9.60
2022-11-13T13:42:45.238Z,9.60
2022-11-13T13:46:10.305Z,9.50
2022-11-13T13:49:33.688Z,9.60
2022-11-13T13:52:56.417Z,9.60
2022-11-13T13:56:19.832Z,9.60
2022-11-13T13:59:42.431Z,9.70
2022-11-13T14:03:04.340Z,9.70
2022-11-13T14:06:27.317Z,9.70
2022-11-13T14:09:49.179Z,9.70
2022-11-13T14:13:12.236Z,9.70
2022-11-13T14:16:33.941Z,9.60
2022-11-13T14:19:56.568Z,9.60
2022-11-13T14:23:20.899Z,9.60
2022-11-13T14:26:42.676Z,9.50
2022-11-13T14:30:04.771Z,9.40
2022-11-13T14:33:29.545Z,9.40
2022-11-13T14:36:51.481Z,9.30
2022-11-13T14:40:20.473Z,9.30
2022-11-13T14:43:48.220Z,9.20
2022-11-13T14:47:20.462Z,9.20
2022-11-13T14:50:49.138Z,9.10
2022-11-13T14:54:25.678Z,9.10
2022-11-13T14:57:49.310Z,9.00
2022-11-13T15:01:14.747Z,8.90
2022-11-13T15:04:40.324Z,8.80
2022-11-13T15:08:02.571Z,8.70
2022-11-13T15:11:25.092Z,8.60
2022-11-13T15:14:48.094Z,8.60
2022-11-13T15:18:13.605Z,8.50
2022-11-13T15:21:35.261Z,8.40
2022-11-13T15:24:57.189Z,8.30
2022-11-13T15:28:18.786Z,8.20
2022-11-13T15:31:42.777Z,8.10
2022-11-13T15:35:04.926Z,8.00
2022-11-13T15:38:26.524Z,7.80
2022-11-13T15:41:48.219Z,7.60
2022-11-13T15:45:13.238Z,7.50
2022-11-13T15:48:36.175Z,7.40
2022-11-13T15:51:57.785Z,7.20
2022-11-13T15:55:21.179Z,6.90
2022-11-13T15:58:42.786Z,6.70
2022-11-13T16:02:04.572Z,6.50
2022-11-13T16:05:31.677Z,6.30
2022-11-13T16:08:54.525Z,6.20
2022-11-13T16:12:18.432Z,6.10
2022-11-13T16:15:41.289Z,6.00
2022-11-13T16:19:04.486Z,6.00
2022-11-13T16:22:30.048Z,6.00
2022-11-13T16:25:53.906Z,6.00
2022-11-13T16:29:21.861Z,6.00
2022-11-13T16:32:44.142Z,6.00
2022-11-13T16:36:11.893Z,5.90
2022-11-13T16:39:37.910Z,5.80
2022-11-13T16:42:59.543Z,5.80
2022-11-13T16:46:25.526Z,5.70
2022-11-13T16:49:47.152Z,5.70
2022-11-13T16:53:09.206Z,5.70
2022-11-13T16:56:32.174Z,5.70
2022-11-13T16:59:53.767Z,5.70
2022-11-13T17:03:15.352Z,5.70
2022-11-13T17:06:36.965Z,5.70
2022-11-13T17:10:24.313Z,5.70
2022-11-13T17:13:44.879Z,5.70
2022-11-13T17:17:10.527Z,5.70
2022-11-13T17:20:32.528Z,5.60
2022-11-13T17:23:54.747Z,5.60
2022-11-13T17:27:16.464Z,5.50
2022-11-13T17:30:39.523Z,5.50
2022-11-13T17:34:01.602Z,5.50
2022-11-13T17:37:25.262Z,5.40
2022-11-13T17:40:47.424Z,5.30
2022-11-13T17:44:09.459Z,5.30
2022-11-13T17:47:34.483Z,5.30
2022-11-13T17:50:56.503Z,5.20
2022-11-13T17:54:18.136Z,5.20
2022-11-13T17:57:41.915Z,5.20
2022-11-13T18:01:04.429Z,5.20
2022-11-13T18:04:27.826Z,5.20
2022-11-13T18:07:50.738Z,5.10
2022-11-13T18:11:13.487Z,5.10
2022-11-13T18:14:35.114Z,5.00
2022-11-13T18:17:56.729Z,5.00
2022-11-13T18:21:23.873Z,5.00
2022-11-13T18:24:45.519Z,4.90
2022-11-13T18:28:07.225Z,4.90
2022-11-13T18:31:29.124Z,5.00
2022-11-13T18:34:51.025Z,5.00
2022-11-13T18:38:14.033Z,5.00
2022-11-13T18:41:35.690Z,5.10
2022-11-13T18:45:00.476Z,5.10
2022-11-13T18:48:24.701Z,5.10
2022-11-13T18:51:46.286Z,5.00
2022-11-13T18:55:09.514Z,5.00
2022-11-13T18:58:31.311Z,5.00
2022-11-13T19:01:52.958Z,5.00
2022-11-13T19:05:14.721Z,5.00
2022-11-13T19:08:40.532Z,5.00
2022-11-13T19:12:04.323Z,4.90
2022-11-13T19:15:25.965Z,4.90
2022-11-13T19:18:50.294Z,4.80
2022-11-13T19:22:11.920Z,4.70
2022-11-13T19:25:36.941Z,4.70
2022-11-13T19:29:00.167Z,4.60
2022-11-13T19:32:21.981Z,4.60
2022-11-13T19:35:45.482Z,4.50
2022-11-13T19:39:07.395Z,4.50
2022-11-13T19:42:29.130Z,4.50
2022-11-13T19:45:52.380Z,4.40
2022-11-13T19:49:14.010Z,4.40
2022-11-13T19:52:35.905Z,4.40
2022-11-13T19:55:57.784Z,4.50
2022-11-13T19:59:19.790Z,4.50
2022-11-13T20:02:42.973Z,4.60
2022-11-13T20:06:05.427Z,4.80
2022-11-13T20:09:28.377Z,4.80
2022-11-13T20:12:51.535Z,4.70
2022-11-13T20:16:15.170Z,4.70
2022-11-13T20:19:40.097Z,4.60
2022-11-13T20:30:08.560Z,4.40
2022-11-13T20:33:30.676Z,4.40
2022-11-13T20:36:53.655Z,4.40
2022-11-13T20:43:52.981Z,4.30
2022-11-13T20:47:14.949Z,4.20
2022-11-13T20:50:36.683Z,4.20
2022-11-13T20:53:59.826Z,4.20
2022-11-13T20:57:21.426Z,4.10
2022-11-13T21:00:43.033Z,4.10
2022-11-13T21:04:04.868Z,4.00
2022-11-13T21:07:27.063Z,4.00
2022-11-13T21:10:50.016Z,4.00
2022-11-13T21:14:11.678Z,4.00
2022-11-13T21:17:33.299Z,3.90
2022-11-13T21:20:54.875Z,3.90
2022-11-13T21:24:16.457Z,3.90
2022-11-13T21:27:39.733Z,3.90
2022-11-13T21:31:01.911Z,3.90
2022-11-13T21:34:23.495Z,3.90
2022-11-13T21:37:45.089Z,3.90
2022-11-13T21:41:07.273Z,3.80
2022-11-13T21:44:30.220Z,3.80
2022-11-13T21:47:52.189Z,3.80
2022-11-13T21:51:13.789Z,3.70
2022-11-13T21:54:35.359Z,3.70
2022-11-13T21:57:56.945Z,3.70
2022-11-13T22:01:19.914Z,3.70
2022-11-13T22:04:41.504Z,3.70
2022-11-13T22:08:03.158Z,3.70
2022-11-13T22:11:25.627Z,3.60
2022-11-13T22:14:47.189Z,3.60
2022-11-13T22:18:10.098Z,3.50
2022-11-13T22:21:31.975Z,3.50
2022-11-13T22:24:53.639Z,3.50
2022-11-13T22:28:15.202Z,3.40
2022-11-13T22:31:37.199Z,3.40
2022-11-13T22:35:00.130Z,3.30
2022-11-13T22:38:21.707Z,3.20
2022-11-13T22:41:43.339Z,3.10
2022-11-13T22:45:22.372Z,3.00
2022-11-13T22:48:45.698Z,2.90
2022-11-13T22:52:08.621Z,2.80
2022-11-13T22:55:30.834Z,2.70
2022-11-13T22:58:52.633Z,2.60
2022-11-13T23:02:14.283Z,2.50
2022-11-13T23:05:35.850Z,2.50
2022-11-13T23:08:58.782Z,2.40
2022-11-13T23:12:20.376Z,2.30
2022-11-13T23:15:41.949Z,2.30
2022-11-13T23:19:04.034Z,2.30
2022-11-13T23:22:25.595Z,2.30
2022-11-13T23:25:48.517Z,2.30
2022-11-13T23:29:10.272Z,2.30
2022-11-13T23:32:31.865Z,2.30
2022-11-13T23:35:53.480Z,2.30
2022-11-13T23:39:15.056Z,2.30
2022-11-13T23:42:54.324Z,2.30
2022-11-13T23:46:16.585Z,2.30
2022-11-13T23:49:38.181Z,2.20
2022-11-13T23:52:59.847Z,2.20
2022-11-13T23:56:21.424Z,2.10
2022-11-13T23:59:44.324Z,2.10
